sensor_id;sensor_type;location;lat;lon;timestamp;pressure;altitude;pressure_sealevel;temperature;humidity
7660;BME280;3872;47.902;8.162;2022-08-02T00:00:01;92349.81;;;13.83;100.00
7660;BME280;3872;47.902;8.162;2022-08-02T00:02:30;92347.78;;;13.80;100.00
7660;BME280;3872;47.902;8.162;2022-08-02T00:04:58;92351.09;;;13.63;100.00
7660;BME280;3872;47.902;8.162;2022-08-02T00:07:25;92352.22;;;13.48;100.00
7660;BME280;3872;47.902;8.162;2022-08-02T00:09:52;92346.75;;;13.45;100.00
7660;BME280;3872;47.902;8.162;2022-08-02T00:12:18;92347.06;;;13.65;100.00
7660;BME280;3872;47.902;8.162;2022-08-02T00:14:45;92339.38;;;13.55;100.00
7660;BME280;3872;47.902;8.162;2022-08-02T00:17:12;92344.03;;;13.58;100.00
7660;BME280;3872;47.902;8.162;2022-08-02T00:19:38;92336.91;;;13.59;100.00
7660;BME280;3872;47.902;8.162;2022-08-02T00:22:05;92332.69;;;13.58;100.00
7660;BME280;3872;47.902;8.162;2022-08-02T00:24:33;92337.50;;;13.56;100.00
7660;BME280;3872;47.902;8.162;2022-08-02T00:26:59;92337.56;;;13.64;100.00
7660;BME280;3872;47.902;8.162;2022-08-02T00:29:28;92335.31;;;13.58;100.00
7660;BME280;3872;47.902;8.162;2022-08-02T00:31:54;92329.38;;;13.52;100.00
7660;BME280;3872;47.902;8.162;2022-08-02T00:34:21;92329.09;;;13.54;100.00
7660;BME280;3872;47.902;8.162;2022-08-02T00:36:48;92333.44;;;13.50;100.00
7660;BME280;3872;47.902;8.162;2022-08-02T00:39:14;92319.81;;;13.20;100.00
7660;BME280;3872;47.902;8.162;2022-08-02T00:41:46;92322.72;;;13.32;100.00
7660;BME280;3872;47.902;8.162;2022-08-02T00:44:13;92320.56;;;13.35;100.00
7660;BME280;3872;47.902;8.162;2022-08-02T00:46:39;92319.97;;;13.24;100.00
7660;BME280;3872;47.902;8.162;2022-08-02T00:49:06;92321.63;;;13.33;100.00
7660;BME280;3872;47.902;8.162;2022-08-02T00:51:33;92324.06;;;13.30;100.00
7660;BME280;3872;47.902;8.162;2022-08-02T00:53:59;92323.53;;;13.19;100.00
7660;BME280;3872;47.902;8.162;2022-08-02T00:56:26;92320.88;;;13.19;100.00
7660;BME280;3872;47.902;8.162;2022-08-02T00:58:54;92309.91;;;13.12;100.00
7660;BME280;3872;47.902;8.162;2022-08-02T01:01:20;92310.72;;;13.13;100.00
7660;BME280;3872;47.902;8.162;2022-08-02T01:04:03;92303.84;;;13.12;100.00
7660;BME280;3872;47.902;8.162;2022-08-02T01:06:29;92295.47;;;12.96;100.00
7660;BME280;3872;47.902;8.162;2022-08-02T01:08:57;92295.19;;;12.98;100.00
7660;BME280;3872;47.902;8.162;2022-08-02T01:11:24;92299.31;;;12.90;100.00
7660;BME280;3872;47.902;8.162;2022-08-02T01:13:50;92296.38;;;12.91;100.00
7660;BME280;3872;47.902;8.162;2022-08-02T01:16:22;92308.50;;;12.92;100.00
7660;BME280;3872;47.902;8.162;2022-08-02T01:18:54;92307.94;;;12.68;100.00
7660;BME280;3872;47.902;8.162;2022-08-02T01:21:46;92304.16;;;12.47;100.00
7660;BME280;3872;47.902;8.162;2022-08-02T01:24:26;92314.88;;;12.37;100.00
7660;BME280;3872;47.902;8.162;2022-08-02T01:27:00;92315.00;;;12.32;100.00
7660;BME280;3872;47.902;8.162;2022-08-02T01:29:33;92312.97;;;12.29;100.00
7660;BME280;3872;47.902;8.162;2022-08-02T01:32:07;92312.19;;;12.28;100.00
7660;BME280;3872;47.902;8.162;2022-08-02T01:34:41;92312.34;;;12.32;100.00
7660;BME280;3872;47.902;8.162;2022-08-02T01:37:15;92298.19;;;12.28;100.00
7660;BME280;3872;47.902;8.162;2022-08-02T01:39:45;92306.69;;;12.25;100.00
7660;BME280;3872;47.902;8.162;2022-08-02T01:42:15;92299.56;;;12.25;100.00
7660;BME280;3872;47.902;8.162;2022-08-02T01:44:45;92300.53;;;12.29;100.00
7660;BME280;3872;47.902;8.162;2022-08-02T01:47:17;92296.53;;;12.32;100.00
7660;BME280;3872;47.902;8.162;2022-08-02T01:49:46;92306.00;;;12.33;100.00
7660;BME280;3872;47.902;8.162;2022-08-02T01:52:16;92316.34;;;12.29;100.00
7660;BME280;3872;47.902;8.162;2022-08-02T01:54:49;92309.72;;;12.18;100.00
7660;BME280;3872;47.902;8.162;2022-08-02T01:57:20;92300.44;;;12.21;100.00
7660;BME280;3872;47.902;8.162;2022-08-02T01:59:49;92299.06;;;12.23;100.00
7660;BME280;3872;47.902;8.162;2022-08-02T02:02:17;92279.63;;;12.19;100.00
7660;BME280;3872;47.902;8.162;2022-08-02T02:04:45;92279.91;;;12.18;100.00
7660;BME280;3872;47.902;8.162;2022-08-02T02:07:15;92284.69;;;12.15;100.00
7660;BME280;3872;47.902;8.162;2022-08-02T02:09:43;92286.53;;;12.15;100.00
7660;BME280;3872;47.902;8.162;2022-08-02T02:12:12;92276.59;;;12.26;100.00
7660;BME280;3872;47.902;8.162;2022-08-02T02:14:41;92272.78;;;12.18;100.00
7660;BME280;3872;47.902;8.162;2022-08-02T02:17:11;92274.63;;;12.04;100.00
7660;BME280;3872;47.902;8.162;2022-08-02T02:19:39;92266.88;;;11.94;100.00
7660;BME280;3872;47.902;8.162;2022-08-02T02:22:07;92261.63;;;11.94;100.00
7660;BME280;3872;47.902;8.162;2022-08-02T02:24:34;92261.94;;;11.92;100.00
7660;BME280;3872;47.902;8.162;2022-08-02T02:27:02;92261.22;;;11.87;100.00
7660;BME280;3872;47.902;8.162;2022-08-02T02:29:30;92267.78;;;11.89;100.00
7660;BME280;3872;47.902;8.162;2022-08-02T02:31:59;92269.25;;;11.95;100.00
7660;BME280;3872;47.902;8.162;2022-08-02T02:34:29;92269.50;;;11.80;100.00
7660;BME280;3872;47.902;8.162;2022-08-02T02:37:00;92269.09;;;11.73;100.00
7660;BME280;3872;47.902;8.162;2022-08-02T02:39:27;92269.56;;;11.61;100.00
7660;BME280;3872;47.902;8.162;2022-08-02T02:41:55;92270.31;;;11.48;100.00
7660;BME280;3872;47.902;8.162;2022-08-02T02:44:24;92270.88;;;11.45;100.00
7660;BME280;3872;47.902;8.162;2022-08-02T02:46:53;92269.78;;;11.32;100.00
7660;BME280;3872;47.902;8.162;2022-08-02T02:49:20;92265.41;;;11.42;100.00
7660;BME280;3872;47.902;8.162;2022-08-02T02:51:50;92264.44;;;11.51;100.00
7660;BME280;3872;47.902;8.162;2022-08-02T02:54:18;92274.94;;;11.56;100.00
7660;BME280;3872;47.902;8.162;2022-08-02T02:56:46;92266.00;;;11.52;100.00
7660;BME280;3872;47.902;8.162;2022-08-02T02:59:13;92268.97;;;11.51;100.00
7660;BME280;3872;47.902;8.162;2022-08-02T03:01:40;92266.94;;;11.29;100.00
7660;BME280;3872;47.902;8.162;2022-08-02T03:04:09;92264.50;;;11.32;100.00
7660;BME280;3872;47.902;8.162;2022-08-02T03:06:37;92263.22;;;11.30;100.00
7660;BME280;3872;47.902;8.162;2022-08-02T03:09:06;92265.38;;;11.28;100.00
7660;BME280;3872;47.902;8.162;2022-08-02T03:11:34;92264.00;;;11.30;100.00
7660;BME280;3872;47.902;8.162;2022-08-02T03:14:03;92266.72;;;11.25;100.00
7660;BME280;3872;47.902;8.162;2022-08-02T03:16:29;92257.25;;;11.24;100.00
7660;BME280;3872;47.902;8.162;2022-08-02T03:18:57;92246.09;;;11.14;100.00
7660;BME280;3872;47.902;8.162;2022-08-02T03:21:26;92249.03;;;11.12;100.00
7660;BME280;3872;47.902;8.162;2022-08-02T03:23:53;92259.06;;;10.91;100.00
7660;BME280;3872;47.902;8.162;2022-08-02T03:26:21;92260.91;;;11.10;100.00
7660;BME280;3872;47.902;8.162;2022-08-02T03:28:47;92255.44;;;11.06;100.00
7660;BME280;3872;47.902;8.162;2022-08-02T03:31:14;92263.91;;;11.03;100.00
7660;BME280;3872;47.902;8.162;2022-08-02T03:33:41;92262.56;;;11.06;100.00
7660;BME280;3872;47.902;8.162;2022-08-02T03:36:11;92258.72;;;10.98;100.00
7660;BME280;3872;47.902;8.162;2022-08-02T03:38:40;92256.63;;;10.95;100.00
7660;BME280;3872;47.902;8.162;2022-08-02T03:41:08;92265.75;;;11.03;100.00
7660;BME280;3872;47.902;8.162;2022-08-02T03:43:38;92266.38;;;10.94;100.00
7660;BME280;3872;47.902;8.162;2022-08-02T03:46:05;92265.91;;;10.92;100.00
7660;BME280;3872;47.902;8.162;2022-08-02T03:48:33;92259.88;;;10.92;100.00
7660;BME280;3872;47.902;8.162;2022-08-02T03:51:01;92260.06;;;10.95;100.00
7660;BME280;3872;47.902;8.162;2022-08-02T03:53:30;92254.38;;;11.07;100.00
7660;BME280;3872;47.902;8.162;2022-08-02T03:55:58;92250.16;;;11.06;100.00
7660;BME280;3872;47.902;8.162;2022-08-02T03:58:25;92254.44;;;11.02;100.00
7660;BME280;3872;47.902;8.162;2022-08-02T04:00:55;92251.78;;;11.02;100.00
7660;BME280;3872;47.902;8.162;2022-08-02T04:03:22;92255.53;;;11.01;100.00
7660;BME280;3872;47.902;8.162;2022-08-02T04:05:49;92251.78;;;11.02;100.00
7660;BME280;3872;47.902;8.162;2022-08-02T04:08:15;92251.88;;;10.97;100.00
7660;BME280;3872;47.902;8.162;2022-08-02T04:10:42;92248.91;;;10.85;100.00
7660;BME280;3872;47.902;8.162;2022-08-02T04:13:28;92249.13;;;10.70;100.00
7660;BME280;3872;47.902;8.162;2022-08-02T04:16:03;92244.22;;;10.44;100.00
7660;BME280;3872;47.902;8.162;2022-08-02T04:18:34;92245.06;;;10.58;100.00
7660;BME280;3872;47.902;8.162;2022-08-02T04:21:03;92244.22;;;10.63;100.00
7660;BME280;3872;47.902;8.162;2022-08-02T04:23:33;92246.47;;;10.88;100.00
7660;BME280;3872;47.902;8.162;2022-08-02T04:26:02;92249.97;;;10.84;100.00
7660;BME280;3872;47.902;8.162;2022-08-02T04:28:30;92251.41;;;10.76;100.00
7660;BME280;3872;47.902;8.162;2022-08-02T04:30:59;92252.88;;;10.82;100.00
7660;BME280;3872;47.902;8.162;2022-08-02T04:33:26;92256.81;;;10.85;100.00
7660;BME280;3872;47.902;8.162;2022-08-02T04:35:53;92255.53;;;11.01;100.00
7660;BME280;3872;47.902;8.162;2022-08-02T04:38:20;92260.00;;;10.82;100.00
7660;BME280;3872;47.902;8.162;2022-08-02T04:40:50;92260.06;;;10.95;100.00
7660;BME280;3872;47.902;8.162;2022-08-02T04:43:17;92260.84;;;10.96;100.00
7660;BME280;3872;47.902;8.162;2022-08-02T04:45:45;92262.69;;;11.14;100.00
7660;BME280;3872;47.902;8.162;2022-08-02T04:48:13;92257.75;;;11.26;100.00
7660;BME280;3872;47.902;8.162;2022-08-02T04:50:40;92256.03;;;11.35;100.00
7660;BME280;3872;47.902;8.162;2022-08-02T04:53:07;92255.06;;;11.45;100.00
7660;BME280;3872;47.902;8.162;2022-08-02T04:55:33;92255.97;;;11.54;100.00
7660;BME280;3872;47.902;8.162;2022-08-02T04:58:00;92250.31;;;11.61;100.00
7660;BME280;3872;47.902;8.162;2022-08-02T05:00:28;92259.06;;;11.75;100.00
7660;BME280;3872;47.902;8.162;2022-08-02T05:02:55;92261.03;;;11.83;100.00
7660;BME280;3872;47.902;8.162;2022-08-02T05:05:23;92261.44;;;11.90;100.00
7660;BME280;3872;47.902;8.162;2022-08-02T05:07:50;92266.72;;;11.90;100.00
7660;BME280;3872;47.902;8.162;2022-08-02T05:10:16;92270.72;;;12.01;100.00
7660;BME280;3872;47.902;8.162;2022-08-02T05:12:43;92266.16;;;12.07;100.00
7660;BME280;3872;47.902;8.162;2022-08-02T05:15:11;92270.41;;;12.30;100.00
7660;BME280;3872;47.902;8.162;2022-08-02T05:17:40;92267.09;;;12.52;100.00
7660;BME280;3872;47.902;8.162;2022-08-02T05:20:08;92265.19;;;12.80;100.00
7660;BME280;3872;47.902;8.162;2022-08-02T05:22:36;92269.72;;;13.02;100.00
7660;BME280;3872;47.902;8.162;2022-08-02T05:25:03;92274.41;;;13.18;100.00
7660;BME280;3872;47.902;8.162;2022-08-02T05:27:30;92274.19;;;13.28;100.00
7660;BME280;3872;47.902;8.162;2022-08-02T05:29:57;92274.34;;;13.32;100.00
7660;BME280;3872;47.902;8.162;2022-08-02T05:32:23;92275.66;;;13.43;100.00
7660;BME280;3872;47.902;8.162;2022-08-02T05:34:50;92278.78;;;13.45;100.00
7660;BME280;3872;47.902;8.162;2022-08-02T05:37:17;92276.06;;;13.59;100.00
7660;BME280;3872;47.902;8.162;2022-08-02T05:39:45;92272.47;;;13.55;100.00
7660;BME280;3872;47.902;8.162;2022-08-02T05:42:11;92268.50;;;13.66;100.00
7660;BME280;3872;47.902;8.162;2022-08-02T05:44:38;92263.97;;;13.89;100.00
7660;BME280;3872;47.902;8.162;2022-08-02T05:47:04;92260.59;;;13.97;100.00
7660;BME280;3872;47.902;8.162;2022-08-02T05:49:31;92260.63;;;14.14;100.00
7660;BME280;3872;47.902;8.162;2022-08-02T05:52:02;92256.00;;;14.20;100.00
7660;BME280;3872;47.902;8.162;2022-08-02T05:54:39;92257.66;;;14.38;100.00
7660;BME280;3872;47.902;8.162;2022-08-02T05:57:16;92254.34;;;14.32;100.00
7660;BME280;3872;47.902;8.162;2022-08-02T05:59:56;92253.78;;;14.44;100.00
7660;BME280;3872;47.902;8.162;2022-08-02T06:02:31;92254.25;;;14.46;100.00
7660;BME280;3872;47.902;8.162;2022-08-02T06:05:10;92261.59;;;14.58;100.00
7660;BME280;3872;47.902;8.162;2022-08-02T06:07:40;92260.53;;;14.67;100.00
7660;BME280;3872;47.902;8.162;2022-08-02T06:10:08;92257.44;;;14.82;100.00
7660;BME280;3872;47.902;8.162;2022-08-02T06:12:41;92260.25;;;14.77;100.00
7660;BME280;3872;47.902;8.162;2022-08-02T06:15:12;92263.69;;;14.86;100.00
7660;BME280;3872;47.902;8.162;2022-08-02T06:17:40;92250.44;;;14.86;100.00
7660;BME280;3872;47.902;8.162;2022-08-02T06:20:07;92249.78;;;14.72;100.00
7660;BME280;3872;47.902;8.162;2022-08-02T06:22:39;92254.00;;;14.99;100.00
7660;BME280;3872;47.902;8.162;2022-08-02T06:25:08;92260.91;;;15.26;100.00
7660;BME280;3872;47.902;8.162;2022-08-02T06:27:37;92255.91;;;15.33;100.00
7660;BME280;3872;47.902;8.162;2022-08-02T06:30:05;92250.22;;;15.86;100.00
7660;BME280;3872;47.902;8.162;2022-08-02T06:32:32;92251.00;;;15.95;100.00
7660;BME280;3872;47.902;8.162;2022-08-02T06:34:59;92249.97;;;16.26;100.00
7660;BME280;3872;47.902;8.162;2022-08-02T06:37:33;92263.28;;;16.55;100.00
7660;BME280;3872;47.902;8.162;2022-08-02T06:40:06;92259.44;;;16.73;100.00
7660;BME280;3872;47.902;8.162;2022-08-02T06:42:43;92261.78;;;16.75;100.00
7660;BME280;3872;47.902;8.162;2022-08-02T06:45:10;92265.16;;;16.84;100.00
7660;BME280;3872;47.902;8.162;2022-08-02T06:47:36;92266.09;;;17.09;100.00
7660;BME280;3872;47.902;8.162;2022-08-02T06:50:04;92262.53;;;17.05;100.00
7660;BME280;3872;47.902;8.162;2022-08-02T06:52:30;92269.84;;;17.29;100.00
7660;BME280;3872;47.902;8.162;2022-08-02T06:54:58;92264.16;;;17.39;100.00
7660;BME280;3872;47.902;8.162;2022-08-02T06:57:26;92267.25;;;17.82;100.00
7660;BME280;3872;47.902;8.162;2022-08-02T06:59:54;92268.88;;;17.54;100.00
7660;BME280;3872;47.902;8.162;2022-08-02T07:02:21;92262.03;;;17.32;100.00
7660;BME280;3872;47.902;8.162;2022-08-02T07:04:47;92270.38;;;17.22;100.00
7660;BME280;3872;47.902;8.162;2022-08-02T07:07:14;92264.41;;;17.67;100.00
7660;BME280;3872;47.902;8.162;2022-08-02T07:09:41;92260.31;;;18.14;100.00
7660;BME280;3872;47.902;8.162;2022-08-02T07:12:08;92267.06;;;18.69;100.00
7660;BME280;3872;47.902;8.162;2022-08-02T07:14:34;92262.16;;;19.07;100.00
7660;BME280;3872;47.902;8.162;2022-08-02T07:17:02;92261.34;;;19.19;100.00
7660;BME280;3872;47.902;8.162;2022-08-02T07:19:29;92259.66;;;19.39;100.00
7660;BME280;3872;47.902;8.162;2022-08-02T07:21:55;92252.84;;;19.41;100.00
7660;BME280;3872;47.902;8.162;2022-08-02T07:24:22;92248.56;;;19.65;100.00
7660;BME280;3872;47.902;8.162;2022-08-02T07:26:48;92247.72;;;20.04;100.00
7660;BME280;3872;47.902;8.162;2022-08-02T07:29:15;92251.03;;;20.29;100.00
7660;BME280;3872;47.902;8.162;2022-08-02T07:31:41;92256.63;;;19.52;100.00
7660;BME280;3872;47.902;8.162;2022-08-02T07:34:09;92260.53;;;19.99;100.00
7660;BME280;3872;47.902;8.162;2022-08-02T07:36:36;92259.72;;;20.10;100.00
7660;BME280;3872;47.902;8.162;2022-08-02T07:39:02;92251.75;;;20.42;100.00
7660;BME280;3872;47.902;8.162;2022-08-02T07:41:29;92256.22;;;20.85;100.00
7660;BME280;3872;47.902;8.162;2022-08-02T07:43:55;92258.75;;;21.28;100.00
7660;BME280;3872;47.902;8.162;2022-08-02T07:46:22;92257.94;;;21.63;100.00
7660;BME280;3872;47.902;8.162;2022-08-02T07:48:51;92259.00;;;21.97;100.00
7660;BME280;3872;47.902;8.162;2022-08-02T07:51:20;92254.97;;;21.68;100.00
7660;BME280;3872;47.902;8.162;2022-08-02T07:53:46;92257.38;;;21.92;100.00
7660;BME280;3872;47.902;8.162;2022-08-02T07:56:13;92248.75;;;22.21;100.00
7660;BME280;3872;47.902;8.162;2022-08-02T07:58:40;92254.69;;;22.31;100.00
7660;BME280;3872;47.902;8.162;2022-08-02T08:01:07;92239.81;;;22.14;100.00
7660;BME280;3872;47.902;8.162;2022-08-02T08:03:33;92237.66;;;22.69;100.00
7660;BME280;3872;47.902;8.162;2022-08-02T08:06:01;92235.91;;;22.31;100.00
7660;BME280;3872;47.902;8.162;2022-08-02T08:08:29;92244.59;;;22.70;100.00
7660;BME280;3872;47.902;8.162;2022-08-02T08:10:55;92244.63;;;22.96;100.00
7660;BME280;3872;47.902;8.162;2022-08-02T08:13:22;92250.88;;;23.03;100.00
7660;BME280;3872;47.902;8.162;2022-08-02T08:15:48;92244.59;;;23.19;100.00
7660;BME280;3872;47.902;8.162;2022-08-02T08:18:15;92242.94;;;22.84;100.00
7660;BME280;3872;47.902;8.162;2022-08-02T08:20:41;92248.59;;;22.56;100.00
7660;BME280;3872;47.902;8.162;2022-08-02T08:23:08;92244.06;;;22.83;100.00
7660;BME280;3872;47.902;8.162;2022-08-02T08:25:36;92238.44;;;23.45;100.00
7660;BME280;3872;47.902;8.162;2022-08-02T08:28:03;92242.81;;;23.86;100.00
7660;BME280;3872;47.902;8.162;2022-08-02T08:30:29;92238.13;;;24.13;100.00
7660;BME280;3872;47.902;8.162;2022-08-02T08:32:56;92246.91;;;23.76;100.00
7660;BME280;3872;47.902;8.162;2022-08-02T08:35:22;92243.50;;;23.79;100.00
7660;BME280;3872;47.902;8.162;2022-08-02T08:37:49;92239.00;;;24.24;100.00
7660;BME280;3872;47.902;8.162;2022-08-02T08:40:15;92235.66;;;24.34;100.00
7660;BME280;3872;47.902;8.162;2022-08-02T08:42:44;92236.28;;;24.57;100.00
7660;BME280;3872;47.902;8.162;2022-08-02T08:45:11;92216.59;;;24.50;100.00
7660;BME280;3872;47.902;8.162;2022-08-02T08:47:39;92223.41;;;25.35;100.00
7660;BME280;3872;47.902;8.162;2022-08-02T08:50:08;92229.50;;;25.98;83.13
7660;BME280;3872;47.902;8.162;2022-08-02T08:52:42;92228.88;;;25.50;74.51
7660;BME280;3872;47.902;8.162;2022-08-02T08:55:14;92221.41;;;23.97;81.96
7660;BME280;3872;47.902;8.162;2022-08-02T08:57:42;92226.16;;;24.10;82.73
7660;BME280;3872;47.902;8.162;2022-08-02T09:00:11;92231.44;;;23.66;78.21
7660;BME280;3872;47.902;8.162;2022-08-02T09:02:40;92231.13;;;23.71;80.49
7660;BME280;3872;47.902;8.162;2022-08-02T09:05:09;92230.69;;;23.66;80.87
7660;BME280;3872;47.902;8.162;2022-08-02T09:07:36;92232.13;;;23.33;84.83
7660;BME280;3872;47.902;8.162;2022-08-02T09:10:30;92224.78;;;24.20;77.90
7660;BME280;3872;47.902;8.162;2022-08-02T09:13:06;92223.84;;;24.09;79.18
7660;BME280;3872;47.902;8.162;2022-08-02T09:15:34;92229.94;;;24.39;76.88
7660;BME280;3872;47.902;8.162;2022-08-02T09:18:02;92225.06;;;23.78;78.61
7660;BME280;3872;47.902;8.162;2022-08-02T09:20:29;92220.94;;;23.28;80.40
7660;BME280;3872;47.902;8.162;2022-08-02T09:23:06;92222.75;;;24.50;75.78
7660;BME280;3872;47.902;8.162;2022-08-02T09:25:33;92225.53;;;24.57;73.35
7660;BME280;3872;47.902;8.162;2022-08-02T09:28:02;92224.22;;;24.88;73.52
7660;BME280;3872;47.902;8.162;2022-08-02T09:30:29;92225.56;;;24.21;76.12
7660;BME280;3872;47.902;8.162;2022-08-02T09:32:57;92215.25;;;24.74;73.13
7660;BME280;3872;47.902;8.162;2022-08-02T09:35:33;92208.28;;;25.13;72.44
7660;BME280;3872;47.902;8.162;2022-08-02T09:38:10;92213.69;;;25.93;64.75
7660;BME280;3872;47.902;8.162;2022-08-02T09:40:38;92217.25;;;24.03;71.68
7660;BME280;3872;47.902;8.162;2022-08-02T09:43:06;92224.88;;;23.64;73.95
7660;BME280;3872;47.902;8.162;2022-08-02T09:45:34;92220.13;;;24.57;70.92
7660;BME280;3872;47.902;8.162;2022-08-02T09:48:05;92223.09;;;24.08;71.26
7660;BME280;3872;47.902;8.162;2022-08-02T09:50:33;92212.94;;;23.95;73.38
7660;BME280;3872;47.902;8.162;2022-08-02T09:52:59;92206.13;;;24.04;73.46
7660;BME280;3872;47.902;8.162;2022-08-02T09:55:27;92195.63;;;24.73;68.53
7660;BME280;3872;47.902;8.162;2022-08-02T09:57:54;92200.53;;;24.57;68.24
7660;BME280;3872;47.902;8.162;2022-08-02T10:00:21;92204.72;;;25.67;64.73
7660;BME280;3872;47.902;8.162;2022-08-02T10:03:09;92191.09;;;26.47;62.27
7660;BME280;3872;47.902;8.162;2022-08-02T10:05:47;92196.09;;;26.38;59.60
7660;BME280;3872;47.902;8.162;2022-08-02T10:08:14;92196.22;;;25.62;61.27
7660;BME280;3872;47.902;8.162;2022-08-02T10:10:41;92187.63;;;26.57;55.10
7660;BME280;3872;47.902;8.162;2022-08-02T10:13:07;92196.00;;;25.23;60.15
7660;BME280;3872;47.902;8.162;2022-08-02T10:15:35;92199.81;;;24.67;62.07
7660;BME280;3872;47.902;8.162;2022-08-02T10:18:02;92196.56;;;25.57;58.47
7660;BME280;3872;47.902;8.162;2022-08-02T10:20:32;92200.47;;;24.98;60.11
7660;BME280;3872;47.902;8.162;2022-08-02T10:23:02;92194.72;;;24.99;62.24
7660;BME280;3872;47.902;8.162;2022-08-02T10:25:29;92194.19;;;26.77;56.43
7660;BME280;3872;47.902;8.162;2022-08-02T10:27:56;92185.84;;;27.94;53.38
7660;BME280;3872;47.902;8.162;2022-08-02T10:30:24;92176.47;;;28.79;51.13
7660;BME280;3872;47.902;8.162;2022-08-02T10:32:53;92183.25;;;28.46;48.69
7660;BME280;3872;47.902;8.162;2022-08-02T10:35:22;92181.28;;;27.84;49.47
7660;BME280;3872;47.902;8.162;2022-08-02T10:37:58;92175.41;;;27.96;48.17
7660;BME280;3872;47.902;8.162;2022-08-02T10:40:41;92183.31;;;26.13;53.30
7660;BME280;3872;47.902;8.162;2022-08-02T10:43:08;92178.72;;;27.24;51.00
7660;BME280;3872;47.902;8.162;2022-08-02T10:45:35;92178.69;;;27.42;49.84
7660;BME280;3872;47.902;8.162;2022-08-02T10:48:03;92175.72;;;28.09;49.58
7660;BME280;3872;47.902;8.162;2022-08-02T10:50:52;92171.63;;;29.01;50.27
7660;BME280;3872;47.902;8.162;2022-08-02T10:53:24;92173.34;;;26.74;58.54
7660;BME280;3872;47.902;8.162;2022-08-02T10:55:52;92173.44;;;28.00;53.97
7660;BME280;3872;47.902;8.162;2022-08-02T10:58:20;92166.91;;;27.98;54.12
7660;BME280;3872;47.902;8.162;2022-08-02T11:00:48;92178.75;;;27.10;55.85
7660;BME280;3872;47.902;8.162;2022-08-02T11:03:34;92173.16;;;27.84;52.95
7660;BME280;3872;47.902;8.162;2022-08-02T11:06:01;92179.13;;;27.12;53.57
7660;BME280;3872;47.902;8.162;2022-08-02T11:08:30;92168.81;;;28.01;50.67
7660;BME280;3872;47.902;8.162;2022-08-02T11:10:57;92181.06;;;26.76;52.09
7660;BME280;3872;47.902;8.162;2022-08-02T11:13:26;92170.69;;;28.18;50.09
7660;BME280;3872;47.902;8.162;2022-08-02T11:15:57;92181.25;;;28.57;52.50
7660;BME280;3872;47.902;8.162;2022-08-02T11:19:01;92186.84;;;27.20;57.52
7660;BME280;3872;47.902;8.162;2022-08-02T11:21:29;92177.22;;;26.48;60.91
7660;BME280;3872;47.902;8.162;2022-08-02T11:24:24;92179.91;;;27.19;57.89
7660;BME280;3872;47.902;8.162;2022-08-02T11:26:52;92174.44;;;27.37;56.14
7660;BME280;3872;47.902;8.162;2022-08-02T11:29:19;92180.69;;;26.56;57.33
7660;BME280;3872;47.902;8.162;2022-08-02T11:31:46;92171.00;;;27.26;57.46
7660;BME280;3872;47.902;8.162;2022-08-02T11:34:15;92167.41;;;28.44;54.33
7660;BME280;3872;47.902;8.162;2022-08-02T11:36:44;92159.22;;;29.78;49.29
7660;BME280;3872;47.902;8.162;2022-08-02T11:39:14;92171.16;;;27.95;53.04
7660;BME280;3872;47.902;8.162;2022-08-02T11:41:41;92168.97;;;28.97;51.83
7660;BME280;3872;47.902;8.162;2022-08-02T11:44:08;92170.19;;;29.30;50.50
7660;BME280;3872;47.902;8.162;2022-08-02T11:46:36;92179.91;;;26.73;60.35
7660;BME280;3872;47.902;8.162;2022-08-02T11:49:13;92166.59;;;27.78;56.97
7660;BME280;3872;47.902;8.162;2022-08-02T11:51:57;92169.53;;;28.12;56.23
7660;BME280;3872;47.902;8.162;2022-08-02T11:54:32;92166.13;;;27.97;55.54
7660;BME280;3872;47.902;8.162;2022-08-02T11:57:13;92170.50;;;27.70;57.64
7660;BME280;3872;47.902;8.162;2022-08-02T11:59:41;92179.16;;;28.83;54.54
7660;BME280;3872;47.902;8.162;2022-08-02T12:02:08;92183.00;;;27.00;56.49
7660;BME280;3872;47.902;8.162;2022-08-02T12:04:35;92173.22;;;28.43;54.19
7660;BME280;3872;47.902;8.162;2022-08-02T12:07:04;92166.94;;;28.57;54.42
7660;BME280;3872;47.902;8.162;2022-08-02T12:09:33;92167.09;;;27.55;55.56
7660;BME280;3872;47.902;8.162;2022-08-02T12:12:01;92159.84;;;28.18;53.93
7660;BME280;3872;47.902;8.162;2022-08-02T12:14:29;92165.28;;;28.15;52.54
7660;BME280;3872;47.902;8.162;2022-08-02T12:16:57;92155.03;;;27.78;54.58
7660;BME280;3872;47.902;8.162;2022-08-02T12:19:42;92156.72;;;28.78;51.27
7660;BME280;3872;47.902;8.162;2022-08-02T12:22:11;92159.03;;;28.25;51.47
7660;BME280;3872;47.902;8.162;2022-08-02T12:24:41;92166.59;;;28.51;50.06
7660;BME280;3872;47.902;8.162;2022-08-02T12:27:08;92164.41;;;28.32;51.93
7660;BME280;3872;47.902;8.162;2022-08-02T12:29:36;92158.28;;;29.62;48.81
7660;BME280;3872;47.902;8.162;2022-08-02T12:32:04;92163.22;;;28.88;48.68
7660;BME280;3872;47.902;8.162;2022-08-02T12:34:32;92161.69;;;27.55;54.91
7660;BME280;3872;47.902;8.162;2022-08-02T12:37:01;92159.22;;;29.03;51.46
7660;BME280;3872;47.902;8.162;2022-08-02T12:39:36;92157.72;;;27.78;54.58
7660;BME280;3872;47.902;8.162;2022-08-02T12:42:06;92162.44;;;27.45;55.70
7660;BME280;3872;47.902;8.162;2022-08-02T12:44:35;92159.78;;;27.31;55.21
7660;BME280;3872;47.902;8.162;2022-08-02T12:47:04;92163.22;;;28.36;53.54
7660;BME280;3872;47.902;8.162;2022-08-02T12:49:31;92153.03;;;27.85;54.75
7660;BME280;3872;47.902;8.162;2022-08-02T12:51:58;92149.28;;;29.68;49.21
7660;BME280;3872;47.902;8.162;2022-08-02T12:54:26;92157.16;;;28.77;51.74
7660;BME280;3872;47.902;8.162;2022-08-02T12:56:53;92140.81;;;30.23;47.74
7660;BME280;3872;47.902;8.162;2022-08-02T12:59:35;92147.63;;;28.51;50.86
7660;BME280;3872;47.902;8.162;2022-08-02T13:02:03;92141.06;;;29.75;47.50
7660;BME280;3872;47.902;8.162;2022-08-02T13:04:30;92143.59;;;30.47;46.88
7660;BME280;3872;47.902;8.162;2022-08-02T13:06:57;92140.16;;;31.59;44.23
7660;BME280;3872;47.902;8.162;2022-08-02T13:09:23;92140.66;;;30.34;44.97
7660;BME280;3872;47.902;8.162;2022-08-02T13:11:50;92144.53;;;30.87;44.06
7660;BME280;3872;47.902;8.162;2022-08-02T13:14:16;92138.97;;;30.44;45.03
7660;BME280;3872;47.902;8.162;2022-08-02T13:16:45;92139.38;;;29.85;46.20
7660;BME280;3872;47.902;8.162;2022-08-02T13:19:12;92126.19;;;31.57;43.15
7660;BME280;3872;47.902;8.162;2022-08-02T13:21:39;92140.47;;;31.41;44.15
7660;BME280;3872;47.902;8.162;2022-08-02T13:24:06;92147.22;;;29.04;46.92